createdAt,value
2023-05-21T00:00:38.933Z,69.21
2023-05-21T00:03:42.316Z,68.75
2023-05-21T00:06:44.697Z,68.67
2023-05-21T00:09:47.228Z,69.06
2023-05-21T00:12:49.453Z,69.27
2023-05-21T00:15:52.111Z,69.99
2023-05-21T00:18:54.707Z,69.99
2023-05-21T00:21:57.505Z,71.82
2023-05-21T00:24:59.966Z,71.65
2023-05-21T00:28:02.770Z,70.97
2023-05-21T00:31:05.025Z,70.05
2023-05-21T00:34:07.558Z,70.18
2023-05-21T00:37:10.080Z,70.15
2023-05-21T00:40:12.922Z,70.47
2023-05-21T00:43:15.267Z,70.26
2023-05-21T00:46:19.827Z,71.00
2023-05-21T00:49:24.449Z,70.49
2023-05-21T00:52:27.500Z,71.34
2023-05-21T00:55:30.360Z,71.54
2023-05-21T00:58:33.973Z,72.14
2023-05-21T01:01:37.302Z,71.36
2023-05-21T01:04:40.117Z,71.12
2023-05-21T01:07:43.404Z,70.54
2023-05-21T01:10:46.014Z,70.94
2023-05-21T01:13:49.936Z,71.73
2023-05-21T01:16:53.661Z,72.30
2023-05-21T01:19:58.051Z,72.31
2023-05-21T01:23:01.822Z,73.41
2023-05-21T01:26:04.990Z,71.31
2023-05-21T01:29:14.181Z,73.46
2023-05-21T01:32:26.189Z,72.58
2023-05-21T01:35:50.514Z,71.56
2023-05-21T01:39:18.858Z,72.82
2023-05-21T01:42:23.643Z,72.59
2023-05-21T01:45:28.964Z,71.77
2023-05-21T01:48:31.776Z,72.02
2023-05-21T01:51:34.471Z,72.84
2023-05-21T01:54:36.911Z,73.17
2023-05-21T01:57:39.316Z,73.95
2023-05-21T02:00:42.185Z,73.98
2023-05-21T02:03:44.766Z,74.16
2023-05-21T02:06:47.088Z,74.46
2023-05-21T02:09:49.642Z,75.65
2023-05-21T02:12:52.941Z,75.60
2023-05-21T02:15:56.261Z,75.09
2023-05-21T02:19:00.636Z,75.23
2023-05-21T02:22:03.314Z,75.80
2023-05-21T02:25:09.277Z,76.20
2023-05-21T02:28:12.715Z,75.73
2023-05-21T02:31:15.041Z,75.72
2023-05-21T02:34:20.535Z,75.08
2023-05-21T02:37:23.010Z,76.31
2023-05-21T02:40:25.605Z,77.29
2023-05-21T02:43:28.100Z,77.30
2023-05-21T02:46:30.781Z,76.01
2023-05-21T02:49:33.501Z,76.67
2023-05-21T02:52:36.039Z,76.26
2023-05-21T02:55:38.456Z,77.34
2023-05-21T02:58:41.643Z,76.84
2023-05-21T03:01:45.229Z,76.67
2023-05-21T03:04:47.928Z,76.82
2023-05-21T03:07:51.347Z,76.82
2023-05-21T03:10:53.848Z,77.66
2023-05-21T03:13:56.055Z,78.04
2023-05-21T03:16:58.652Z,77.40
2023-05-21T03:20:00.875Z,76.67
2023-05-21T03:23:04.338Z,76.53
2023-05-21T03:26:06.553Z,76.40
2023-05-21T03:29:09.128Z,75.70
2023-05-21T03:32:11.624Z,75.77
2023-05-21T03:35:14.211Z,75.90
2023-05-21T03:38:16.596Z,75.37
2023-05-21T03:41:19.133Z,76.98
2023-05-21T03:44:21.767Z,74.26
2023-05-21T03:47:24.715Z,74.29
2023-05-21T03:50:27.037Z,75.13
2023-05-21T03:53:29.601Z,74.80
2023-05-21T03:56:31.843Z,73.85
2023-05-21T03:59:34.369Z,74.96
2023-05-21T04:02:36.800Z,73.86
2023-05-21T04:05:39.395Z,74.90
2023-05-21T04:08:42.689Z,73.62
2023-05-21T04:11:45.419Z,74.86
2023-05-21T04:14:47.861Z,75.14
2023-05-21T04:17:50.412Z,74.92
2023-05-21T04:20:53.792Z,75.13
2023-05-21T04:23:57.592Z,75.59
2023-05-21T04:27:01.400Z,74.81
2023-05-21T04:30:06.067Z,74.93
2023-05-21T04:33:09.970Z,75.41
2023-05-21T04:36:12.509Z,75.67
2023-05-21T04:39:15.659Z,75.81
2023-05-21T04:42:19.423Z,75.00
2023-05-21T04:45:24.541Z,76.03
2023-05-21T04:48:28.760Z,75.27
2023-05-21T04:51:31.379Z,77.07
2023-05-21T04:54:34.119Z,77.82
2023-05-21T04:57:36.626Z,77.44
2023-05-21T05:00:40.283Z,75.80
2023-05-21T05:03:42.654Z,75.23
2023-05-21T05:06:45.294Z,76.21
2023-05-21T05:09:47.529Z,75.79
2023-05-21T05:12:50.100Z,76.13
2023-05-21T05:15:54.778Z,76.55
2023-05-21T05:18:57.530Z,75.72
2023-05-21T05:21:59.704Z,75.62
2023-05-21T05:25:02.232Z,77.10
2023-05-21T05:28:04.679Z,79.80
2023-05-21T05:31:07.657Z,79.83
2023-05-21T05:34:09.859Z,80.48
2023-05-21T05:37:13.462Z,81.04
2023-05-21T05:40:16.077Z,79.39
2023-05-21T05:43:18.785Z,79.24
2023-05-21T05:46:21.107Z,79.72
2023-05-21T05:49:23.769Z,79.02
2023-05-21T05:52:26.196Z,76.21
2023-05-21T05:55:28.641Z,77.30
2023-05-21T05:58:31.170Z,77.79
2023-05-21T06:01:34.538Z,76.21
2023-05-21T06:04:37.076Z,75.94
2023-05-21T06:07:40.922Z,75.58
2023-05-21T06:10:43.408Z,75.10
2023-05-21T06:13:45.824Z,75.45
2023-05-21T06:16:49.327Z,73.50
2023-05-21T06:19:51.584Z,73.61
2023-05-21T06:22:54.140Z,73.87
2023-05-21T06:25:56.682Z,73.07
2023-05-21T06:29:00.908Z,73.24
2023-05-21T06:32:04.473Z,74.48
2023-05-21T06:35:07.684Z,72.85
2023-05-21T06:38:10.099Z,72.94
2023-05-21T06:41:12.652Z,73.89
2023-05-21T06:44:17.146Z,73.96
2023-05-21T06:47:21.630Z,73.07
2023-05-21T06:50:24.720Z,72.84
2023-05-21T06:53:27.788Z,71.89
2023-05-21T06:56:30.550Z,72.91
2023-05-21T06:59:33.013Z,72.32
2023-05-21T07:02:36.412Z,71.23
2023-05-21T07:05:39.463Z,69.37
2023-05-21T07:08:41.936Z,68.48
2023-05-21T07:11:47.088Z,69.83
2023-05-21T07:14:50.614Z,66.09
2023-05-21T07:17:53.259Z,64.96
2023-05-21T07:20:57.088Z,65.68
2023-05-21T07:24:00.171Z,65.00
2023-05-21T07:27:08.740Z,66.05
2023-05-21T07:30:17.031Z,63.47
2023-05-21T07:33:20.722Z,64.25
2023-05-21T07:36:23.526Z,62.15
2023-05-21T07:39:26.153Z,59.07
2023-05-21T07:42:28.704Z,57.70
2023-05-21T07:45:31.277Z,58.36
2023-05-21T07:48:35.459Z,58.27
2023-05-21T07:51:38.254Z,55.57
2023-05-21T07:54:41.086Z,55.76
2023-05-21T07:57:43.493Z,55.75
2023-05-21T08:00:47.571Z,53.66
2023-05-21T08:03:50.415Z,52.55
2023-05-21T08:06:53.760Z,53.53
2023-05-21T08:09:56.525Z,53.94
2023-05-21T08:12:58.825Z,52.53
2023-05-21T08:16:01.687Z,50.99
2023-05-21T08:19:04.458Z,49.79
2023-05-21T08:22:07.632Z,49.33
2023-05-21T08:25:10.175Z,49.75
2023-05-21T08:28:12.790Z,47.45
2023-05-21T08:31:18.379Z,48.41
2023-05-21T08:34:21.058Z,47.69
2023-05-21T08:37:23.701Z,46.06
2023-05-21T08:40:29.444Z,46.38
2023-05-21T08:43:33.604Z,44.69
2023-05-21T08:46:41.722Z,44.30
2023-05-21T08:49:45.530Z,43.24
2023-05-21T08:52:49.928Z,43.20
2023-05-21T08:55:54.108Z,41.67
2023-05-21T08:58:58.754Z,41.82
2023-05-21T09:02:02.131Z,44.05
2023-05-21T09:05:05.744Z,41.22
2023-05-21T09:08:18.867Z,41.65
2023-05-21T09:11:22.427Z,40.96
2023-05-21T09:14:26.448Z,40.46
2023-05-21T09:17:29.671Z,40.10
2023-05-21T09:20:32.666Z,39.20
2023-05-21T09:23:35.396Z,39.09
2023-05-21T09:26:37.699Z,39.98
2023-05-21T09:29:42.197Z,38.18
2023-05-21T09:32:45.920Z,40.52
2023-05-21T09:35:50.016Z,39.68
2023-05-21T09:38:52.472Z,40.60
2023-05-21T09:41:57.460Z,38.92
2023-05-21T09:45:01.037Z,39.45
2023-05-21T09:48:04.419Z,40.12
2023-05-21T09:51:21.324Z,39.80
2023-05-21T09:54:24.536Z,39.27
2023-05-21T09:57:26.858Z,38.88
2023-05-21T10:00:29.396Z,38.18
2023-05-21T10:03:33.462Z,39.35
2023-05-21T10:06:43.707Z,38.87
2023-05-21T10:09:50.103Z,37.99
2023-05-21T10:12:59.634Z,38.92
2023-05-21T10:16:04.760Z,38.10
2023-05-21T10:19:10.994Z,38.41
2023-05-21T10:22:14.142Z,40.04
2023-05-21T10:25:17.414Z,40.57
2023-05-21T10:28:20.399Z,41.42
2023-05-21T10:31:23.490Z,38.72
2023-05-21T10:34:27.996Z,40.73
2023-05-21T10:37:30.365Z,39.57
2023-05-21T10:40:33.051Z,40.02
2023-05-21T10:43:48.870Z,41.52
2023-05-21T10:47:28.960Z,38.25
2023-05-21T10:50:39.957Z,40.02
2023-05-21T10:53:56.678Z,40.55
2023-05-21T10:57:40.793Z,39.61
2023-05-21T11:00:43.950Z,40.05
2023-05-21T11:03:50.014Z,38.27
2023-05-21T11:06:52.634Z,40.99
2023-05-21T11:10:33.502Z,40.74
2023-05-21T11:13:48.812Z,40.42
2023-05-21T11:16:51.272Z,39.54
2023-05-21T11:19:54.709Z,40.97
2023-05-21T11:22:58.260Z,39.84
2023-05-21T11:26:02.018Z,39.58
2023-05-21T11:29:04.127Z,39.03
2023-05-21T11:32:09.242Z,39.84
2023-05-21T11:35:14.031Z,42.88
2023-05-21T11:38:17.884Z,42.60
2023-05-21T11:41:20.255Z,42.48
2023-05-21T11:44:42.802Z,42.59
2023-05-21T11:47:45.030Z,41.82
2023-05-21T11:50:47.532Z,41.19
2023-05-21T11:53:51.217Z,40.27
2023-05-21T11:56:55.104Z,41.52
2023-05-21T11:59:58.587Z,42.73
2023-05-21T12:03:01.976Z,41.66
2023-05-21T12:06:05.750Z,42.39
2023-05-21T12:09:10.101Z,41.79
2023-05-21T12:12:15.112Z,41.97
2023-05-21T12:15:18.271Z,42.13
2023-05-21T12:18:21.839Z,41.90
2023-05-21T12:21:24.099Z,42.44
2023-05-21T12:24:27.185Z,41.40
2023-05-21T12:27:31.254Z,41.29
2023-05-21T12:30:35.147Z,41.68
2023-05-21T12:33:37.475Z,42.96
2023-05-21T12:36:46.162Z,43.12
2023-05-21T12:39:50.472Z,41.32
2023-05-21T12:42:52.980Z,42.32
2023-05-21T12:45:55.209Z,43.78
2023-05-21T12:48:57.652Z,42.20
2023-05-21T12:52:01.796Z,41.62
2023-05-21T12:55:05.522Z,41.08
2023-05-21T12:58:09.187Z,43.16
2023-05-21T13:01:12.429Z,43.00
2023-05-21T13:04:14.778Z,42.98
2023-05-21T13:07:18.238Z,41.34
2023-05-21T13:10:20.476Z,39.53
2023-05-21T13:13:22.957Z,39.95
2023-05-21T13:16:25.347Z,41.31
2023-05-21T13:19:28.082Z,41.51
2023-05-21T13:22:30.444Z,40.46
2023-05-21T13:25:32.950Z,38.27
2023-05-21T13:28:35.166Z,41.16
2023-05-21T13:31:37.688Z,41.13
2023-05-21T13:34:39.898Z,40.36
2023-05-21T13:37:42.683Z,41.04
2023-05-21T13:40:44.847Z,42.23
2023-05-21T13:43:47.296Z,41.70
2023-05-21T13:46:49.660Z,40.53
2023-05-21T13:49:52.398Z,41.13
2023-05-21T13:52:54.705Z,40.06
2023-05-21T13:55:57.211Z,39.11
2023-05-21T13:59:00.111Z,40.81
2023-05-21T14:02:02.758Z,41.43
2023-05-21T14:05:05.523Z,42.02
2023-05-21T14:08:08.143Z,40.20
2023-05-21T14:11:10.676Z,38.25
2023-05-21T14:14:18.724Z,39.35
2023-05-21T14:17:21.337Z,41.46
2023-05-21T14:20:23.539Z,42.11
2023-05-21T14:23:26.037Z,41.67
2023-05-21T14:26:28.253Z,41.82
2023-05-21T14:29:30.710Z,40.79
2023-05-21T14:32:32.906Z,40.74
2023-05-21T14:35:35.797Z,40.24
2023-05-21T14:38:38.099Z,40.59
2023-05-21T14:41:40.713Z,40.39
2023-05-21T14:44:42.853Z,41.60
2023-05-21T14:47:46.014Z,42.38
2023-05-21T14:50:50.040Z,39.70
2023-05-21T14:53:52.474Z,41.31
2023-05-21T14:56:55.238Z,41.61
2023-05-21T14:59:57.725Z,42.17
2023-05-21T15:03:00.599Z,42.53
2023-05-21T15:06:03.474Z,41.96
2023-05-21T15:09:05.720Z,42.49
2023-05-21T15:12:08.214Z,44.48
2023-05-21T15:15:12.226Z,44.82
2023-05-21T15:18:14.749Z,43.70
2023-05-21T15:21:16.977Z,42.87
2023-05-21T15:24:19.534Z,44.79
2023-05-21T15:27:21.772Z,43.51
2023-05-21T15:30:27.165Z,44.04
2023-05-21T15:33:29.401Z,45.37
2023-05-21T15:36:31.877Z,44.02
2023-05-21T15:39:34.071Z,45.48
2023-05-21T15:42:36.641Z,44.31
2023-05-21T15:45:39.360Z,42.87
2023-05-21T15:48:42.079Z,44.62
2023-05-21T15:51:44.355Z,43.82
2023-05-21T15:54:47.232Z,43.83
2023-05-21T15:57:49.853Z,44.40
2023-05-21T16:00:52.529Z,45.09
2023-05-21T16:03:55.467Z,47.40
2023-05-21T16:06:57.742Z,46.20
2023-05-21T16:10:00.308Z,45.75
2023-05-21T16:13:02.513Z,45.71
2023-05-21T16:16:05.310Z,43.65
2023-05-21T16:19:07.633Z,44.27
2023-05-21T16:22:10.898Z,43.49
2023-05-21T16:25:13.370Z,44.92
2023-05-21T16:28:16.134Z,43.41
2023-05-21T16:31:18.418Z,43.12
2023-05-21T16:34:20.923Z,42.80
2023-05-21T16:37:23.145Z,43.63
2023-05-21T16:40:25.860Z,44.68
2023-05-21T16:43:28.030Z,43.84
2023-05-21T16:46:30.656Z,45.71
2023-05-21T16:49:32.912Z,44.15
2023-05-21T16:52:35.367Z,43.45
2023-05-21T16:55:38.538Z,44.24
2023-05-21T16:58:41.238Z,44.15
2023-05-21T17:01:43.496Z,45.16
2023-05-21T17:04:46.393Z,45.98
2023-05-21T17:07:48.657Z,47.23
2023-05-21T17:10:51.201Z,47.03
2023-05-21T17:13:53.404Z,47.01
2023-05-21T17:16:56.084Z,46.55
2023-05-21T17:19:58.493Z,47.14
2023-05-21T17:23:01.210Z,46.96
2023-05-21T17:26:03.509Z,47.11
2023-05-21T17:29:06.205Z,47.27
2023-05-21T17:32:08.486Z,48.32
2023-05-21T17:35:11.110Z,47.62
2023-05-21T17:38:14.077Z,47.88
2023-05-21T17:41:18.957Z,48.99
2023-05-21T17:44:21.629Z,49.46
2023-05-21T17:47:24.146Z,49.63
2023-05-21T17:50:26.654Z,49.60
2023-05-21T17:53:29.161Z,51.39
2023-05-21T17:56:40.455Z,50.40
2023-05-21T17:59:45.164Z,50.47
2023-05-21T18:02:47.442Z,51.39
2023-05-21T18:05:50.586Z,52.08
2023-05-21T18:08:52.820Z,51.55
2023-05-21T18:11:55.541Z,51.54
2023-05-21T18:14:57.992Z,52.01
2023-05-21T18:18:00.488Z,52.88
2023-05-21T18:21:02.720Z,53.03
2023-05-21T18:24:06.403Z,53.45
2023-05-21T18:27:08.564Z,55.24
2023-05-21T18:30:11.565Z,54.95
2023-05-21T18:33:15.344Z,54.28
2023-05-21T18:36:18.674Z,54.45
2023-05-21T18:39:24.514Z,56.06
2023-05-21T18:42:28.181Z,56.92
2023-05-21T18:45:30.552Z,59.60
2023-05-21T18:48:33.108Z,57.63
2023-05-21T18:51:35.339Z,59.43
2023-05-21T18:54:37.905Z,58.75
2023-05-21T18:57:40.374Z,58.89
2023-05-21T19:00:43.375Z,59.75
2023-05-21T19:03:45.584Z,61.28
2023-05-21T19:06:48.060Z,61.32
2023-05-21T19:09:50.255Z,62.86
2023-05-21T19:12:52.725Z,61.67
2023-05-21T19:15:55.040Z,61.23
2023-05-21T19:18:57.597Z,61.62
2023-05-21T19:21:59.797Z,61.77
2023-05-21T19:25:03.119Z,61.44
2023-05-21T19:28:05.335Z,62.19
2023-05-21T19:31:09.973Z,61.65
2023-05-21T19:34:12.156Z,62.71
2023-05-21T19:37:14.683Z,62.51
2023-05-21T19:40:17.756Z,62.87
2023-05-21T19:43:20.264Z,63.89
2023-05-21T19:46:22.780Z,64.57
2023-05-21T19:49:25.275Z,64.12
2023-05-21T19:52:27.454Z,64.31
2023-05-21T19:55:33.288Z,64.79
2023-05-21T19:58:35.599Z,65.62
2023-05-21T20:01:39.986Z,66.04
2023-05-21T20:04:42.634Z,68.03
2023-05-21T20:07:44.944Z,69.11
2023-05-21T20:10:49.665Z,69.57
2023-05-21T20:13:54.302Z,68.96
2023-05-21T20:16:58.452Z,68.75
2023-05-21T20:20:01.454Z,69.11
2023-05-21T20:23:03.977Z,68.89
2023-05-21T20:26:07.176Z,69.79
2023-05-21T20:29:09.635Z,69.40
2023-05-21T20:32:12.357Z,69.69
2023-05-21T20:35:14.846Z,69.81
2023-05-21T20:38:21.033Z,70.74
2023-05-21T20:41:25.197Z,71.65
2023-05-21T20:44:28.823Z,72.02
2023-05-21T20:47:31.444Z,72.83
2023-05-21T20:50:34.796Z,73.17
2023-05-21T20:53:37.315Z,74.26
2023-05-21T20:56:42.684Z,73.87
2023-05-21T20:59:45.684Z,73.72
2023-05-21T21:02:47.902Z,73.76
2023-05-21T21:05:50.643Z,74.38
2023-05-21T21:08:55.450Z,73.73
2023-05-21T21:12:06.272Z,73.58
2023-05-21T21:15:14.206Z,74.26
2023-05-21T21:18:16.769Z,74.47
2023-05-21T21:21:18.926Z,75.51
2023-05-21T21:24:21.393Z,75.82
2023-05-21T21:27:23.592Z,76.44
2023-05-21T21:30:26.043Z,76.85
2023-05-21T21:33:28.453Z,77.12
2023-05-21T21:36:31.328Z,77.59
2023-05-21T21:39:33.552Z,78.44
2023-05-21T21:42:36.377Z,79.04
2023-05-21T21:45:38.615Z,79.32
2023-05-21T21:48:41.060Z,79.73
2023-05-21T21:51:46.785Z,82.49
2023-05-21T21:54:49.296Z,81.18
2023-05-21T21:57:51.466Z,82.98
2023-05-21T22:00:54.131Z,80.30
2023-05-21T22:03:56.683Z,77.34
2023-05-21T22:06:58.969Z,77.28
2023-05-21T22:10:01.647Z,72.11
2023-05-21T22:13:04.865Z,71.54
2023-05-21T22:16:07.833Z,71.09
2023-05-21T22:19:12.686Z,71.82
2023-05-21T22:22:15.201Z,71.89
2023-05-21T22:25:17.795Z,70.82
2023-05-21T22:28:22.389Z,67.61
2023-05-21T22:31:24.938Z,69.55
2023-05-21T22:34:27.501Z,69.88
2023-05-21T22:37:29.843Z,71.50
2023-05-21T22:40:32.364Z,72.90
2023-05-21T22:43:35.521Z,71.10
2023-05-21T22:46:38.356Z,71.96
2023-05-21T22:49:40.959Z,72.71
2023-05-21T22:52:43.610Z,73.39
2023-05-21T22:55:45.833Z,74.79
2023-05-21T22:58:48.280Z,72.19
2023-05-21T23:01:50.664Z,73.42
2023-05-21T23:04:53.154Z,72.04
2023-05-21T23:07:55.417Z,72.45
2023-05-21T23:10:57.969Z,72.92
2023-05-21T23:14:00.548Z,74.79
2023-05-21T23:17:04.439Z,74.39
2023-05-21T23:20:08.822Z,74.02
2023-05-21T23:23:11.299Z,73.37
2023-05-21T23:26:13.505Z,76.08
2023-05-21T23:29:15.963Z,74.94
2023-05-21T23:32:18.312Z,73.87
2023-05-21T23:35:20.802Z,77.81
2023-05-21T23:38:23.033Z,76.79
2023-05-21T23:41:27.521Z,77.29
2023-05-21T23:44:29.716Z,78.72
2023-05-21T23:47:32.184Z,77.39
2023-05-21T23:50:34.539Z,76.92
2023-05-21T23:53:37.005Z,75.17
2023-05-21T23:56:39.248Z,74.75
2023-05-21T23:59:41.756Z,73.10
